Time;durP1;ratioP1;P1;durP2;ratioP2;P2;SDS_P1;SDS_P2;PMS_P1;PMS_P2;Temp;Humidity;BMP_temperature;BMP_pressure;BME280_temperature;BME280_humidity;BME280_pressure;Samples;Min_cycle;Max_cycle;Signal;HPM_P1;HPM_P2
2022/06/03 00:01:03;;;;;;;38.65;12.80;;;;;;;13.09;100.00;101302.94;4837558;29;20022;-91
2022/06/03 00:03:47;;;;;;;34.03;12.93;;;;;;;13.05;100.00;101309.78;4874505;29;20034;-91
2022/06/03 00:06:36;;;;;;;34.67;13.00;;;;;;;12.64;100.00;101239.63;4868089;29;20441;-91
2022/06/03 00:09:24;;;;;;;36.22;12.05;;;;;;;12.10;100.00;101154.91;4852916;29;20038;-91
2022/06/03 00:12:08;;;;;;;37.55;13.43;;;;;;;12.08;100.00;101145.34;4869066;29;20022;-91
2022/06/03 00:14:53;;;;;;;33.67;10.80;;;;;;;13.01;100.00;101305.81;4867821;29;20093;-91
2022/06/03 00:17:43;;;;;;;31.42;11.50;;;;;;;13.02;100.00;101304.78;4870105;29;20049;-91
2022/06/03 00:20:17;;;;;;;39.15;12.75;;;;;;;13.01;100.00;101296.88;4883954;29;20041;-91
2022/06/03 00:22:46;;;;;;;34.85;12.23;;;;;;;12.98;100.00;101302.69;4863168;29;20030;-91
2022/06/03 00:25:55;;;;;;;37.88;13.20;;;;;;;12.99;100.00;101326.81;4870390;29;20338;-91
2022/06/03 00:28:57;;;;;;;43.95;13.50;;;;;;;12.98;100.00;101303.53;4814865;29;20106;-91
2022/06/03 00:31:56;;;;;;;32.92;11.10;;;;;;;12.92;100.00;101302.47;4850808;29;20121;-91
2022/06/03 00:34:45;;;;;;;40.13;12.57;;;;;;;11.98;100.00;101165.44;4866455;29;20059;-90
2022/06/03 00:37:22;;;;;;;32.38;11.85;;;;;;;12.94;100.00;101304.97;4851682;29;20097;-91
2022/06/03 00:40:03;;;;;;;31.27;11.45;;;;;;;11.93;100.00;101157.13;4866834;29;20014;-91
2022/06/03 00:42:38;;;;;;;34.90;11.85;;;;;;;12.91;100.00;101306.22;4866987;29;20013;-91
2022/06/03 00:45:42;;;;;;;36.30;11.52;;;;;;;12.91;100.00;101311.63;4866841;29;20034;-91
2022/06/03 00:51:06;;;;;;;36.28;12.32;;;;;;;12.49;100.00;101244.34;4870735;29;20033;-91
2022/06/03 00:54:04;;;;;;;30.33;11.48;;;;;;;12.39;100.00;101253.66;4846124;29;20045;-91
2022/06/03 00:56:35;;;;;;;29.05;10.20;;;;;;;12.89;100.00;101324.50;4866100;29;20053;-91
2022/06/03 00:59:41;;;;;;;35.10;11.70;;;;;;;12.13;100.00;101208.47;4871396;29;20030;-92
2022/06/03 01:02:21;;;;;;;33.33;11.35;;;;;;;12.11;100.00;101220.50;4866110;29;20074;-90
2022/06/03 01:05:23;;;;;;;32.72;11.68;;;;;;;12.89;100.00;101329.88;4850740;29;20461;-92
2022/06/03 01:08:11;;;;;;;26.33;8.98;;;;;;;12.82;100.00;101323.63;4865741;29;20041;-91
2022/06/03 01:11:04;;;;;;;37.03;11.68;;;;;;;11.87;100.00;101179.50;4845938;29;20037;-86
2022/06/03 01:13:49;;;;;;;30.52;10.95;;;;;;;12.86;100.00;101333.00;4842223;29;20030;-86
2022/06/03 01:16:30;;;;;;;31.42;11.65;;;;;;;12.72;100.00;101317.78;4829738;29;20030;-91
2022/06/03 01:21:59;;;;;;;32.60;10.88;;;;;;;12.96;100.00;101348.81;4845788;29;20049;-91
2022/06/03 01:24:45;;;;;;;30.98;10.48;;;;;;;12.19;100.00;101225.75;4814746;29;20090;-92
2022/06/03 01:27:38;;;;;;;26.38;10.63;;;;;;;12.96;100.00;101351.53;4829914;29;20049;-91
2022/06/03 01:30:42;;;;;;;32.40;11.45;;;;;;;12.98;100.00;101346.78;4830220;29;20031;-93
2022/06/03 01:33:46;;;;;;;31.38;10.60;;;;;;;12.04;100.00;101209.66;4819439;29;20056;-91
2022/06/03 01:36:51;;;;;;;27.00;9.65;;;;;;;12.27;100.00;101230.13;4813648;29;20073;-92
2022/06/03 01:39:56;;;;;;;28.73;10.35;;;;;;;12.20;100.00;101233.63;4814266;29;20031;-92
2022/06/03 01:42:54;;;;;;;26.88;10.48;;;;;;;12.85;100.00;101344.00;4813837;29;20066;-92
2022/06/03 01:45:55;;;;;;;28.17;7.63;;;;;;;12.87;100.00;101350.03;4829151;29;20108;-91
2022/06/03 01:48:39;;;;;;;28.67;9.63;;;;;;;12.79;100.00;101355.59;4828882;29;20034;-92
2022/06/03 01:51:14;;;;;;;25.95;10.55;;;;;;;11.93;100.00;101221.03;4828601;29;20034;-92
2022/06/03 01:54:08;;;;;;;35.30;11.57;;;;;;;12.81;100.00;101353.53;4829500;29;20068;-92
2022/06/03 01:56:58;;;;;;;29.27;10.63;;;;;;;12.13;100.00;101251.63;4812734;29;20043;-91
2022/06/03 01:59:33;;;;;;;26.48;10.43;;;;;;;12.64;100.00;101344.91;4813642;29;20019;-92
2022/06/03 02:02:23;;;;;;;24.83;9.95;;;;;;;12.83;100.00;101373.06;4813473;29;20011;-91
2022/06/03 02:05:09;;;;;;;25.20;10.27;;;;;;;12.08;100.00;101246.00;4828929;29;20075;-92
2022/06/03 02:08:00;;;;;;;35.42;11.02;;;;;;;12.87;100.00;101363.53;4813816;29;20030;-92
2022/06/03 02:10:53;;;;;;;24.00;10.65;;;;;;;12.87;100.00;101355.44;4829179;29;20030;-92
2022/06/03 02:13:48;;;;;;;30.73;10.48;;;;;;;12.35;100.00;101273.97;4813558;29;20027;-91
2022/06/03 02:16:48;;;;;;;27.25;10.82;;;;;;;12.90;100.00;101358.56;4809605;29;20065;-92
2022/06/03 02:19:32;;;;;;;24.92;10.60;;;;;;;12.85;100.00;101360.22;4828897;29;20066;-90
2022/06/03 02:22:32;;;;;;;31.20;11.30;;;;;;;12.86;100.00;101348.38;4828539;29;20042;-92
2022/06/03 02:25:31;;;;;;;23.50;9.25;;;;;;;11.94;100.00;101222.69;4828952;29;20074;-91
2022/06/03 02:28:15;;;;;;;29.58;11.05;;;;;;;12.85;100.00;101369.16;4829544;29;20026;-92
2022/06/03 02:30:52;;;;;;;41.17;12.40;;;;;;;12.85;100.00;101371.03;4831325;29;20013;-92
2022/06/03 02:33:32;;;;;;;34.00;11.55;;;;;;;12.85;100.00;101369.16;4837988;29;20038;-87
2022/06/03 02:36:36;;;;;;;33.15;11.90;;;;;;;11.96;100.00;101220.63;4822455;29;20030;-87
2022/06/03 02:39:20;;;;;;;31.55;12.35;;;;;;;12.90;100.00;101363.13;4856128;29;20053;-90
2022/06/03 02:42:07;;;;;;;26.10;10.17;;;;;;;11.98;100.00;101238.25;4864497;29;20030;-91
2022/06/03 02:44:59;;;;;;;34.25;12.25;;;;;;;12.92;100.00;101377.28;4828840;29;20051;-92
2022/06/03 02:47:50;;;;;;;33.88;10.73;;;;;;;12.93;100.00;101368.13;4812703;29;20038;-90
2022/06/03 02:50:34;;;;;;;28.20;10.23;;;;;;;12.87;100.00;101369.75;4828197;29;20058;-92
2022/06/03 02:53:31;;;;;;;26.45;10.82;;;;;;;12.92;100.00;101363.78;4813143;29;20035;-91
2022/06/03 02:56:18;;;;;;;29.80;11.13;;;;;;;12.90;100.00;101357.72;4819043;29;20014;-91
2022/06/03 02:58:47;;;;;;;29.65;10.77;;;;;;;12.89;100.00;101373.09;4840165;29;20037;-91
2022/06/03 03:01:32;;;;;;;30.75;11.60;;;;;;;12.12;100.00;101241.88;4937125;24;20057;-91
2022/06/03 03:04:28;;;;;;;29.95;10.52;;;;;;;12.17;100.00;101262.88;4971347;23;20235;-92
2022/06/03 03:07:24;;;;;;;31.65;11.13;;;;;;;12.93;100.00;101365.44;4886882;29;20013;-91
2022/06/03 03:09:49;;;;;;;32.42;10.70;;;;;;;12.91;100.00;101376.44;4885885;29;20025;-91
2022/06/03 03:15:13;;;;;;;33.25;11.20;;;;;;;12.96;100.00;101370.44;4919901;23;20040;-91
2022/06/03 03:17:50;;;;;;;22.02;10.15;;;;;;;12.98;100.00;101371.06;4921356;29;20056;-91
2022/06/03 03:20:34;;;;;;;23.92;9.93;;;;;;;12.98;100.00;101368.38;4916149;29;20116;-92
2022/06/03 03:23:31;;;;;;;25.23;10.20;;;;;;;12.17;100.00;101252.91;4902812;29;20029;-91
2022/06/03 03:26:12;;;;;;;23.20;9.80;;;;;;;12.27;100.00;101243.63;4885391;29;20025;-92
2022/06/03 03:29:15;;;;;;;26.60;10.52;;;;;;;12.01;100.00;101206.53;4885437;29;20029;-91
2022/06/03 03:31:50;;;;;;;25.88;9.77;;;;;;;12.99;100.00;101371.91;4901507;29;20069;-91
2022/06/03 03:34:24;;;;;;;;;;;;;;;12.92;100.00;101377.28;4902169;29;20040;-91
2022/06/03 03:37:08;;;;;;;24.25;9.77;;;;;;;12.95;100.00;101387.69;4885854;29;19900;-90
2022/06/03 03:40:11;;;;;;;25.38;8.75;;;;;;;13.00;100.00;101396.00;4885906;29;20024;-91
2022/06/03 03:43:14;;;;;;;21.45;8.40;;;;;;;12.99;100.00;101394.34;4890205;29;20192;-92
2022/06/03 03:46:01;;;;;;;24.15;9.32;;;;;;;12.94;100.00;101397.63;4919950;29;20024;-91
2022/06/03 03:48:55;;;;;;;22.00;8.68;;;;;;;12.97;100.00;101395.56;4895709;29;20033;-92
2022/06/03 03:51:45;;;;;;;29.15;9.35;;;;;;;12.94;100.00;101386.81;4884943;29;20017;-91
2022/06/03 03:54:22;;;;;;;19.98;8.80;;;;;;;13.02;100.00;101406.63;4885584;29;20029;-89
2022/06/03 03:57:27;;;;;;;25.10;9.50;;;;;;;12.44;100.00;101307.84;4902563;29;20036;-87
2022/06/03 04:00:09;;;;;;;18.55;8.55;;;;;;;12.84;100.00;101363.94;4885997;29;20118;-87
2022/06/03 04:02:46;;;;;;;21.25;8.75;;;;;;;13.06;100.00;101405.19;4885917;29;20052;-90
2022/06/03 04:05:42;;;;;;;19.50;7.47;;;;;;;13.05;100.00;101422.44;4889899;29;20040;-90
2022/06/03 04:08:07;;;;;;;;;;;;;;;13.01;100.00;101410.34;5088975;24;20263;-83
2022/06/03 04:13:31;;;;;;;20.75;8.88;;;;;;;12.85;100.00;101389.91;4941864;24;20149;-90
2022/06/03 04:16:19;;;;;;;20.25;7.63;;;;;;;12.91;100.00;101397.19;4906375;29;20037;-90
2022/06/03 04:19:13;;;;;;;24.83;8.90;;;;;;;13.08;100.00;101416.63;4911103;29;20036;-90
2022/06/03 04:22:06;;;;;;;21.42;7.97;;;;;;;13.05;100.00;101419.75;4899484;29;20005;-90
2022/06/03 04:24:51;;;;;;;22.27;7.70;;;;;;;13.06;100.00;101430.31;4902148;29;20021;-90
2022/06/03 04:27:16;;;;;;;;;;;;;;;13.07;100.00;101423.88;4906905;29;20024;-89
2022/06/03 04:30:07;;;;;;;20.77;8.40;;;;;;;13.08;100.00;101425.56;4906813;29;19927;-83
2022/06/03 04:33:05;;;;;;;19.63;7.55;;;;;;;13.12;100.00;101421.44;4906432;29;20025;-89
2022/06/03 04:36:08;;;;;;;18.70;7.82;;;;;;;13.17;100.00;101428.91;4895477;29;20036;-89
2022/06/03 04:39:24;;;;;;;21.00;8.27;;;;;;;12.23;100.00;101273.69;4904502;29;20029;-90
2022/06/03 04:44:30;;;;;;;21.08;7.57;;;;;;;12.79;100.00;101369.13;4846109;29;20058;-90
2022/06/03 04:47:26;;;;;;;21.98;8.13;;;;;;;13.25;100.00;101441.47;4833003;29;20055;-90
2022/06/03 04:50:27;;;;;;;24.88;8.15;;;;;;;13.05;100.00;101414.34;4820271;29;20042;-90
2022/06/03 04:53:11;;;;;;;19.20;7.63;;;;;;;13.26;100.00;101452.06;4842856;29;20022;-90
2022/06/03 04:55:46;;;;;;;24.67;8.13;;;;;;;13.26;100.00;101449.38;4965136;23;20057;-91
2022/06/03 04:58:33;;;;;;;16.23;7.22;;;;;;;13.32;100.00;101453.97;4844150;29;20030;-91
2022/06/03 05:01:04;;;;;;;19.95;6.70;;;;;;;13.26;100.00;101459.34;4871644;29;20033;-91
2022/06/03 05:04:09;;;;;;;17.75;7.75;;;;;;;13.32;100.00;101455.84;4884256;29;20044;-89
2022/06/03 05:07:03;;;;;;;20.00;6.97;;;;;;;13.38;100.00;101466.69;4870236;29;20040;-90
2022/06/03 05:10:13;;;;;;;19.63;7.05;;;;;;;13.35;100.00;101458.16;4848108;29;20026;-90
2022/06/03 05:12:48;;;;;;;18.67;6.93;;;;;;;13.38;100.00;101458.59;4863978;29;20026;-91
2022/06/03 05:15:52;;;;;;;19.40;6.72;;;;;;;12.36;100.00;101296.41;4859105;29;20036;-89
2022/06/03 05:18:39;;;;;;;19.55;7.57;;;;;;;13.43;100.00;101459.84;4842235;29;20041;-90
2022/06/03 05:21:36;;;;;;;18.55;6.85;;;;;;;12.57;100.00;101336.78;4840751;29;20045;-89
2022/06/03 05:24:23;;;;;;;17.45;5.97;;;;;;;13.43;100.00;101460.66;4856251;29;20373;-89
2022/06/03 05:27:19;;;;;;;16.60;6.22;;;;;;;13.51;100.00;101467.75;4859256;29;20380;-90
2022/06/03 05:30:02;;;;;;;19.75;5.88;;;;;;;13.51;100.00;101465.06;4841050;29;20021;-90
2022/06/03 05:33:09;;;;;;;10.88;3.63;;;;;;;12.79;100.00;101361.00;4845814;29;20030;-89
2022/06/03 05:35:37;;;;;;;19.38;5.50;;;;;;;13.56;100.00;101466.13;4845036;29;20034;-88
2022/06/03 05:38:33;;;;;;;17.20;5.00;;;;;;;13.60;100.00;101467.38;4856809;29;20034;-89
2022/06/03 05:42:23;;;;;;;15.93;5.47;;;;;;;13.63;100.00;101475.09;4851926;29;20034;-89
2022/06/03 05:44:34;;;;;;;16.38;5.05;;;;;;;13.66;100.00;101473.03;4857562;29;20042;-89
2022/06/03 05:47:06;;;;;;;16.63;5.45;;;;;;;13.62;100.00;101461.78;4854674;29;20037;-90
2022/06/03 05:49:46;;;;;;;13.15;5.07;;;;;;;13.72;100.00;101475.75;4853392;29;20022;-89
2022/06/03 05:52:25;;;;;;;13.07;4.72;;;;;;;13.84;100.00;101484.09;4852907;29;20026;-91
2022/06/03 05:54:59;;;;;;;15.38;4.63;;;;;;;13.86;100.00;101476.63;4852326;29;20040;-89
2022/06/03 05:57:41;;;;;;;20.23;5.03;;;;;;;13.65;100.00;101463.25;4842484;29;20034;-88
2022/06/03 06:00:41;;;;;;;18.13;5.50;;;;;;;13.76;100.00;101481.59;4852454;29;20013;-90
2022/06/03 06:03:35;;;;;;;12.43;4.38;;;;;;;13.44;100.00;101440.69;4860764;29;20066;-91
2022/06/03 06:06:25;;;;;;;19.95;4.93;;;;;;;13.81;100.00;101481.81;4859262;29;20089;-90
2022/06/03 06:09:16;;;;;;;12.82;4.05;;;;;;;13.87;100.00;101478.28;4850240;29;20073;-89
2022/06/03 06:11:50;;;;;;;11.65;4.00;;;;;;;13.84;100.00;101475.97;4866480;29;20049;-90
2022/06/03 06:14:54;;;;;;;12.98;4.40;;;;;;;13.93;100.00;101482.88;4848828;29;20086;-90
2022/06/03 06:18:00;;;;;;;15.93;4.80;;;;;;;13.94;100.00;101487.28;4807474;29;20093;-90
2022/06/03 06:20:44;;;;;;;;;;;;;;;13.96;100.00;101492.47;4820197;29;20129;-89
2022/06/03 06:23:16;;;;;;;12.95;4.13;;;;;;;13.95;100.00;101490.81;4820890;29;19904;-89
2022/06/03 06:26:07;;;;;;;11.75;3.97;;;;;;;13.92;100.00;101481.22;4822954;29;20067;-88
2022/06/03 06:28:47;;;;;;;17.60;4.00;;;;;;;13.93;100.00;101482.88;4853830;29;20030;-88
2022/06/03 06:31:26;;;;;;;15.20;4.03;;;;;;;13.98;100.00;101485.81;4840248;29;20106;-89
2022/06/03 06:34:09;;;;;;;12.20;3.67;;;;;;;14.05;100.00;101481.25;4844157;29;20069;-88
2022/06/03 06:37:08;;;;;;;14.07;3.67;;;;;;;14.04;100.00;101466.06;4837191;29;20186;-89
2022/06/03 06:39:53;;;;;;;17.10;4.00;;;;;;;14.09;100.00;101478.97;4858575;29;20049;-88
2022/06/03 06:42:19;;;;;;;;;;;;;;;14.24;100.00;101486.91;4852661;29;20105;-87
2022/06/03 06:44:58;;;;;;;18.15;4.35;;;;;;;14.28;100.00;101488.16;4846910;29;19913;-88
2022/06/03 06:47:42;;;;;;;11.68;2.97;;;;;;;14.34;100.00;101490.88;4853724;29;20040;-84
2022/06/03 06:50:23;;;;;;;10.88;3.50;;;;;;;14.35;100.00;101480.88;4831182;29;20124;-88
2022/06/03 06:52:54;;;;;;;11.30;3.25;;;;;;;14.34;100.00;101496.28;4839502;29;20088;-88
2022/06/03 06:55:34;;;;;;;10.77;3.63;;;;;;;14.14;100.00;101483.75;4849955;29;20070;-88
2022/06/03 06:58:06;;;;;;;14.15;3.60;;;;;;;14.28;100.00;101493.56;4835405;29;20042;-88
2022/06/03 07:00:38;;;;;;;9.43;2.90;;;;;;;14.17;100.00;101499.56;4856585;29;20038;-89
2022/06/03 07:03:14;;;;;;;14.50;3.78;;;;;;;14.36;100.00;101493.34;4852126;29;20337;-89
2022/06/03 07:05:39;;;;;;;12.98;3.53;;;;;;;14.46;100.00;101499.19;4855365;29;20109;-90
2022/06/03 07:08:19;;;;;;;14.90;4.05;;;;;;;14.56;100.00;101504.22;4863865;29;20123;-90
2022/06/03 07:10:49;;;;;;;10.55;3.63;;;;;;;14.58;100.00;101507.56;4853569;29;20044;-89
2022/06/03 07:13:43;;;;;;;12.35;3.30;;;;;;;14.67;100.00;101500.91;4844191;29;20030;-88
2022/06/03 07:20:05;;;;;;;10.20;3.28;;;;;;;14.56;100.00;101499.63;4851810;29;20040;-89
2022/06/03 07:22:33;;;;;;;9.68;3.15;;;;;;;14.61;100.00;101506.31;4835746;29;20026;-89
2022/06/03 07:25:17;;;;;;;9.43;3.00;;;;;;;14.64;100.00;101514.03;4836746;29;20045;-89
2022/06/03 07:27:42;;;;;;;13.00;3.20;;;;;;;14.69;100.00;101508.81;4852507;29;20029;-89
2022/06/03 07:30:08;;;;;;;15.43;4.03;;;;;;;14.87;100.00;101510.91;4835558;29;20030;-89
2022/06/03 07:32:52;;;;;;;13.15;3.22;;;;;;;15.00;100.00;101510.88;4841743;29;20057;-89
2022/06/03 07:35:26;;;;;;;10.98;3.47;;;;;;;15.15;100.00;101513.34;4837054;29;20029;-89
2022/06/03 07:38:45;;;;;;;10.30;3.50;;;;;;;15.37;100.00;101525.59;4838129;29;20042;-89
2022/06/03 07:41:19;;;;;;;10.93;3.40;;;;;;;15.56;100.00;101528.44;4819719;29;20401;-89
2022/06/03 07:43:52;;;;;;;16.02;2.90;;;;;;;15.64;100.00;101522.78;4864807;29;20026;-89
2022/06/03 07:46:30;;;;;;;7.85;2.40;;;;;;;15.55;100.00;101529.47;4846549;29;20046;-88
2022/06/03 07:48:55;;;;;;;11.30;3.10;;;;;;;15.33;100.00;101510.78;4835931;29;20030;-89
2022/06/03 07:51:31;;;;;;;12.02;2.85;;;;;;;15.69;100.00;101509.41;4854855;29;20045;-89
2022/06/03 07:54:03;;;;;;;10.00;3.00;;;;;;;15.75;100.00;101516.69;4841341;29;20026;-89
2022/06/03 07:56:30;;;;;;;9.75;2.55;;;;;;;15.76;100.00;101529.25;4851581;29;20058;-88
2022/06/03 07:59:03;;;;;;;10.38;2.53;;;;;;;15.70;100.00;101511.09;4827946;29;20037;-89
2022/06/03 08:01:36;;;;;;;11.35;2.55;;;;;;;15.97;100.00;101518.03;4838700;29;20037;-89
2022/06/03 08:04:07;;;;;;;10.65;2.65;;;;;;;15.95;100.00;101522.84;4869984;29;20029;-89
2022/06/03 08:12:13;;;;;;;12.52;2.88;;;;;;;15.56;100.00;101521.13;4850166;29;20045;-88
2022/06/03 08:14:38;;;;;;;9.48;2.50;;;;;;;15.61;100.00;101526.75;4857093;29;20053;-89
2022/06/03 08:17:08;;;;;;;12.35;3.22;;;;;;;15.83;100.00;101529.22;4837440;29;20041;-89
2022/06/03 08:19:35;;;;;;;9.73;2.90;;;;;;;15.73;100.00;101521.53;4825986;29;20026;-89
2022/06/03 08:22:04;;;;;;;12.68;3.10;;;;;;;15.88;100.00;101522.06;4838609;29;20034;-89
2022/06/03 08:24:34;;;;;;;11.60;2.33;;;;;;;16.15;100.00;101527.34;4856129;29;20089;-89
2022/06/03 08:27:05;;;;;;;11.75;2.70;;;;;;;16.14;100.00;101525.69;4839189;29;20026;-89
2022/06/03 08:29:36;;;;;;;14.30;3.30;;;;;;;16.33;100.00;101532.03;4840426;29;20049;-89
2022/06/03 08:32:07;;;;;;;10.82;2.40;;;;;;;16.53;100.00;101526.47;4834456;29;20027;-89
2022/06/03 08:34:38;;;;;;;12.43;2.83;;;;;;;16.11;100.00;101518.78;4871309;29;20146;-89
2022/06/03 08:37:05;;;;;;;12.02;3.22;;;;;;;16.42;100.00;101544.28;4859346;29;20125;-89
2022/06/03 08:39:33;;;;;;;12.88;3.25;;;;;;;16.75;100.00;101527.75;4841412;29;20022;-89
2022/06/03 08:42:24;;;;;;;10.32;2.60;;;;;;;16.49;100.00;101553.25;4839708;29;20034;-88
2022/06/03 08:45:04;;;;;;;11.02;2.90;;;;;;;16.67;100.00;101544.31;4856570;29;20022;-90
2022/06/03 08:47:57;;;;;;;11.07;2.97;;;;;;;16.74;100.00;101536.94;4840520;29;20064;-88
2022/06/03 08:50:38;;;;;;;9.27;2.33;;;;;;;16.88;100.00;101545.81;4836911;29;20034;-88
2022/06/03 08:53:11;;;;;;;8.52;2.80;;;;;;;16.91;100.00;101540.78;4840191;29;20090;-88
2022/06/03 08:55:39;;;;;;;11.32;3.00;;;;;;;16.57;100.00;101525.78;4843472;29;20058;-88
2022/06/03 08:58:13;;;;;;;9.48;2.72;;;;;;;16.83;100.00;101542.97;4857949;29;20030;-89
2022/06/03 09:00:52;;;;;;;11.95;2.63;;;;;;;16.98;100.00;101548.03;4852441;29;20021;-89
2022/06/03 09:03:20;;;;;;;9.60;2.50;;;;;;;17.24;100.00;101547.78;4855583;29;20034;-87
2022/06/03 09:05:55;;;;;;;13.13;3.03;;;;;;;17.09;100.00;101526.41;4849404;29;20029;-87
2022/06/03 09:08:33;;;;;;;7.53;2.70;;;;;;;17.34;100.00;101558.16;4839478;29;20013;-91
2022/06/03 09:11:12;;;;;;;10.00;2.75;;;;;;;17.53;100.00;101537.22;4847496;29;20030;-89
2022/06/03 09:14:03;;;;;;;8.95;2.30;;;;;;;17.63;100.00;101559.28;4843741;29;20036;-88
2022/06/03 09:16:29;;;;;;;8.57;2.47;;;;;;;17.52;100.00;101560.06;4837811;29;20034;-88
2022/06/03 09:19:01;;;;;;;10.93;2.60;;;;;;;17.63;100.00;101558.47;4847984;29;20045;-88
2022/06/03 09:21:32;;;;;;;15.23;2.90;;;;;;;17.41;100.00;101550.75;4859956;29;20033;-90
2022/06/03 09:24:05;;;;;;;11.85;2.35;;;;;;;17.63;100.00;101566.63;4850439;29;20017;-90
2022/06/03 09:26:40;;;;;;;12.40;2.58;;;;;;;17.49;100.00;101563.22;4861990;29;20065;-91
2022/06/03 09:29:10;;;;;;;13.15;2.85;;;;;;;17.42;100.00;101565.16;4852711;29;20598;-88
2022/06/03 09:31:37;;;;;;;8.68;2.53;;;;;;;16.96;100.00;101561.03;4843508;29;20014;-89
2022/06/03 09:34:05;;;;;;;8.35;2.33;;;;;;;16.79;100.00;101577.91;4866263;29;20010;-88
2022/06/03 09:36:32;;;;;;;9.38;2.60;;;;;;;16.51;100.00;101575.56;4852585;29;20044;-89
2022/06/03 09:39:04;;;;;;;11.65;2.42;;;;;;;16.35;100.00;101571.50;4831502;29;20102;-90
2022/06/03 09:41:36;;;;;;;11.40;3.38;;;;;;;16.28;100.00;101557.13;4844614;29;20037;-89
2022/06/03 09:44:03;;;;;;;7.88;2.30;;;;;;;16.61;100.00;101566.94;4869970;29;20034;-90
2022/06/03 09:46:31;;;;;;;10.30;2.70;;;;;;;17.05;100.00;101574.13;4847779;29;20044;-90
2022/06/03 09:48:58;;;;;;;9.43;2.45;;;;;;;17.24;100.00;101572.25;4867969;29;20034;-90
2022/06/03 09:54:34;;;;;;;9.05;2.30;;;;;;;17.71;100.00;101577.19;4863453;29;20067;-89
2022/06/03 09:57:15;;;;;;;17.33;3.00;;;;;;;17.38;100.00;101573.81;4849556;29;20037;-89
2022/06/03 09:59:53;;;;;;;10.45;2.25;;;;;;;16.79;100.00;101534.44;4873403;29;20065;-88
2022/06/03 10:02:19;;;;;;;8.55;2.63;;;;;;;16.82;100.00;101565.75;4856900;29;20372;-88
2022/06/03 10:04:44;;;;;;;12.45;2.65;;;;;;;16.49;100.00;101528.78;4833162;29;20054;-85
2022/06/03 10:07:10;;;;;;;8.73;2.88;;;;;;;16.84;100.00;101561.75;4847287;29;20069;-88
2022/06/03 10:12:56;;;;;;;10.80;2.58;;;;;;;17.46;100.00;101569.13;4756761;30;20058;-85
2022/06/03 10:15:38;;;;;;;8.52;2.72;;;;;;;17.57;97.97;101576.53;4825218;29;20038;-85
2022/06/03 10:18:11;;;;;;;7.38;2.10;;;;;;;17.42;98.21;101573.31;4842632;29;20033;-86
2022/06/03 10:20:37;;;;;;;9.60;2.33;;;;;;;17.32;98.28;101587.47;4843614;29;20357;-86
2022/06/03 10:23:04;;;;;;;8.77;2.30;;;;;;;17.11;98.66;101564.22;4819333;29;20033;-89
2022/06/03 10:25:31;;;;;;;10.95;2.47;;;;;;;16.96;99.62;101569.19;4839578;29;20178;-89
2022/06/03 10:28:02;;;;;;;12.60;3.10;;;;;;;16.91;100.00;101597.03;4839835;29;20037;-86
2022/06/03 10:30:32;;;;;;;8.90;2.40;;;;;;;16.77;100.00;101582.72;4818189;29;20081;-85
2022/06/03 10:32:58;;;;;;;6.95;2.38;;;;;;;16.67;100.00;101585.91;4829277;29;20022;-86
2022/06/03 10:35:29;;;;;;;10.80;2.78;;;;;;;16.70;100.00;101581.09;4833017;29;20038;-87
2022/06/03 10:38:03;;;;;;;9.45;2.78;;;;;;;17.06;100.00;101585.84;4839258;29;20030;-88
2022/06/03 10:40:29;;;;;;;8.10;2.45;;;;;;;16.95;100.00;101572.97;4839913;29;20034;-88
2022/06/03 10:42:57;;;;;;;9.15;2.30;;;;;;;17.03;100.00;101605.31;4840204;29;20044;-89
2022/06/03 10:45:31;;;;;;;8.25;2.40;;;;;;;16.87;100.00;101590.38;4832377;29;20022;-88
2022/06/03 10:47:57;;;;;;;6.47;2.03;;;;;;;16.99;100.00;101610.38;4839784;29;20055;-89
2022/06/03 10:50:35;;;;;;;7.60;2.22;;;;;;;17.01;100.00;101604.69;4857112;29;20029;-88
2022/06/03 11:02:01;;;;;;;8.15;2.40;;;;;;;17.41;99.98;101615.22;4853013;29;20033;-88
2022/06/03 11:04:45;;;;;;;9.18;2.15;;;;;;;17.37;100.00;101609.38;4850431;29;20025;-89
2022/06/03 11:07:30;;;;;;;10.13;2.42;;;;;;;17.06;100.00;101581.22;4833862;29;20041;-88
2022/06/03 11:09:59;;;;;;;;;;;;;;;17.11;100.00;101618.63;4870308;29;20033;-88
2022/06/03 11:12:28;;;;;;;8.63;2.67;;;;;;;17.10;100.00;101611.53;4840301;29;19924;-89
2022/06/03 11:14:54;;;;;;;5.97;2.50;;;;;;;17.07;100.00;101614.69;4843076;29;20361;-89
2022/06/03 11:17:33;;;;;;;7.90;2.50;;;;;;;17.14;100.00;101616.28;4859325;29;20093;-89
2022/06/03 11:19:58;;;;;;;11.73;2.83;;;;;;;17.22;100.00;101590.72;4858492;29;20022;-89
2022/06/03 11:22:30;;;;;;;8.60;2.70;;;;;;;17.34;100.00;101616.09;4858507;29;20032;-88
2022/06/03 11:25:03;;;;;;;8.23;2.50;;;;;;;17.19;99.78;101618.34;4841448;29;20065;-88
2022/06/03 11:27:40;;;;;;;9.77;2.55;;;;;;;16.89;99.50;101618.19;4839288;29;20112;-89
2022/06/03 11:30:16;;;;;;;7.35;2.45;;;;;;;16.27;100.00;101595.38;4858957;29;20110;-88
2022/06/03 11:32:45;;;;;;;7.90;2.25;;;;;;;16.54;100.00;101617.78;4851498;29;20076;-88
2022/06/03 11:35:23;;;;;;;9.80;2.92;;;;;;;16.39;100.00;101618.06;4840423;29;20038;-88
2022/06/03 11:37:52;;;;;;;5.93;2.50;;;;;;;16.52;100.00;101623.41;4840093;29;20037;-88
2022/06/03 11:40:32;;;;;;;7.00;2.20;;;;;;;16.36;100.00;101624.78;4845792;29;20026;-89
2022/06/03 11:43:09;;;;;;;6.20;2.03;;;;;;;16.29;100.00;101602.25;4851829;29;20070;-88
2022/06/03 11:45:42;;;;;;;7.93;2.30;;;;;;;16.40;100.00;101620.56;4865889;29;20062;-87
2022/06/03 11:48:11;;;;;;;8.73;2.42;;;;;;;16.39;100.00;101629.78;4857778;29;20108;-88
2022/06/03 11:50:37;;;;;;;10.52;2.80;;;;;;;16.60;100.00;101625.06;4857541;29;20025;-88
2022/06/03 11:53:03;;;;;;;10.88;2.42;;;;;;;16.83;100.00;101628.06;4841074;29;20106;-89
2022/06/03 11:55:32;;;;;;;8.20;2.25;;;;;;;16.89;100.00;101619.03;4826913;29;20065;-89
2022/06/03 11:58:11;;;;;;;13.50;3.42;;;;;;;16.76;100.00;101621.00;4855177;29;20017;-89
2022/06/03 12:00:44;;;;;;;10.63;2.70;;;;;;;16.75;100.00;101619.31;4842055;29;20094;-88
2022/06/03 12:03:28;;;;;;;12.50;2.38;;;;;;;16.93;100.00;101624.84;4855608;29;20037;-89
2022/06/03 12:06:11;;;;;;;7.28;1.85;;;;;;;16.98;100.00;101610.56;4847085;29;20460;-87
2022/06/03 12:09:06;;;;;;;8.35;2.08;;;;;;;17.01;100.00;101630.00;4866596;29;20038;-89
2022/06/03 12:14:36;;;;;;;6.03;1.77;;;;;;;16.79;100.00;101612.41;4859811;29;20075;-89
2022/06/03 12:17:11;;;;;;;6.15;1.55;;;;;;;16.83;100.00;101630.78;4851836;29;20070;-90
2022/06/03 12:19:43;;;;;;;5.85;2.00;;;;;;;16.87;100.00;101623.84;4844946;29;20060;-89
2022/06/03 12:22:33;;;;;;;8.98;2.20;;;;;;;16.96;100.00;101626.28;4859470;29;20036;-90
2022/06/03 12:25:05;;;;;;;3.20;1.33;;;;;;;16.65;100.00;101627.94;4850288;29;20033;-90
2022/06/03 12:27:38;;;;;;;7.05;2.05;;;;;;;16.35;100.00;101611.41;4838887;29;20070;-90
2022/06/03 12:30:09;;;;;;;7.50;2.10;;;;;;;16.43;100.00;101622.84;4868847;29;20027;-89
2022/06/03 12:32:37;;;;;;;6.28;1.70;;;;;;;16.39;100.00;101613.47;4861642;29;20026;-89
2022/06/03 12:35:40;;;;;;;8.52;2.13;;;;;;;16.59;100.00;101626.13;4853980;29;20038;-89
2022/06/03 12:38:21;;;;;;;7.60;2.08;;;;;;;16.87;100.00;101623.00;4873165;29;20033;-91
2022/06/03 12:40:52;;;;;;;9.18;2.10;;;;;;;16.87;100.00;101591.22;4872606;29;20030;-90
2022/06/03 12:43:30;;;;;;;4.10;1.55;;;;;;;17.05;98.96;101614.94;4847178;29;20098;-90
2022/06/03 12:46:01;;;;;;;5.28;1.90;;;;;;;17.07;99.97;101620.13;4858478;29;20018;-89
2022/06/03 12:48:47;;;;;;;5.60;1.85;;;;;;;16.95;99.69;101608.31;4862341;29;20025;-90
2022/06/03 12:51:19;;;;;;;7.95;2.05;;;;;;;17.06;100.00;101618.47;4864084;29;20034;-90
2022/06/03 12:53:48;;;;;;;7.60;1.90;;;;;;;17.51;97.99;101620.97;4847043;29;20037;-90
2022/06/03 12:56:26;;;;;;;7.43;2.13;;;;;;;17.98;95.79;101618.56;4862289;29;20106;-90